»·PEaware :: DAL120 KRDD-KSLC

DAL120 :: KRDD-KSLC

FLIGHT INFORMATION

Flight Status: Arrived
Operator:
Delta Air Lines
More flights by this operator :: More flights under this callsign
Pilot: Anonymous 18613 (18613)
Aircraft: BOEING 737-800
(B738)
More flights by this aircraft type
Origin: KRDD Redding Mun
United States
Destination: KSLC Salt Lake City Intl
United States
More flights between these airports :: More routes between these airports
Route: +HOMAN2 HOMAN BVL WAATS5
File this flight plan on PilotEdge
Remarks:
Altitude:
(Current/Filed)
37,000ft
Speed:
(Current/Filed)
442kts
Departed: 20-Jan-19 10:31 AM
Arrived: 20-Jan-19 11:40 AM
Distance/Time
Traveled:
469nm/1:08
Distance/Time
To Go:
Arrived

Flight Plot

Page will automatically refresh every two minutes.

Flight plan parsing failed; only flown route is shown


Map Options




Map Legend


Flown Route
Filed Route
Departure Airport
Arrival Airport
Navaid (VOR, NDB)
Fix

Horizontal Profiles

Position Reports

Time Latitude Longitude Heading Altitude Ground
Speed
20-Jan-19 09:56 40.505808 -122.298969 315 498ft 0kts
20-Jan-19 09:57 40.505808 -122.298969 315 498ft 0kts
20-Jan-19 09:58 40.505808 -122.298969 315 498ft 0kts
20-Jan-19 09:59 40.505808 -122.298969 315 498ft 0kts
20-Jan-19 10:00 40.505808 -122.298969 315 498ft 0kts
20-Jan-19 10:01 40.505808 -122.298969 315 498ft 0kts
20-Jan-19 10:02 40.505808 -122.298969 315 498ft 0kts
20-Jan-19 10:03 40.505808 -122.298969 315 498ft 0kts
20-Jan-19 10:04 40.505808 -122.298969 315 498ft 0kts
20-Jan-19 10:05 40.505808 -122.298969 315 498ft 0kts
20-Jan-19 10:06 40.505808 -122.298969 315 498ft 0kts
20-Jan-19 10:07 40.505808 -122.298969 315 498ft 0kts
20-Jan-19 10:08 40.505808 -122.298969 315 498ft 0kts
20-Jan-19 10:09 40.505808 -122.298969 315 498ft 0kts
20-Jan-19 10:10 40.505808 -122.298969 315 498ft 0kts
20-Jan-19 10:12 40.505808 -122.298969 315 498ft 0kts
20-Jan-19 10:13 40.505808 -122.298969 315 498ft 0kts
20-Jan-19 10:14 40.505808 -122.298969 315 498ft 0kts
20-Jan-19 10:15 40.505808 -122.298969 315 498ft 0kts
20-Jan-19 10:16 40.505808 -122.298969 315 498ft 0kts
20-Jan-19 10:17 40.505808 -122.298969 315 498ft 0kts
20-Jan-19 10:18 40.505808 -122.298969 315 498ft 0kts
20-Jan-19 10:19 40.505808 -122.298969 315 498ft 0kts
20-Jan-19 10:20 40.505808 -122.298969 315 498ft 0kts
20-Jan-19 10:21 40.505808 -122.298969 315 498ft 0kts
20-Jan-19 10:22 40.505808 -122.298969 315 498ft 0kts
20-Jan-19 10:23 40.505808 -122.298969 315 498ft 0kts
20-Jan-19 10:24 40.505471 -122.298535 316 497ft 0kts
20-Jan-19 10:25 40.507278 -122.298519 17 498ft 13kts
20-Jan-19 10:26 40.510052 -122.296312 0 500ft 17kts
20-Jan-19 10:27 40.516754 -122.296284 0 506ft 28kts
20-Jan-19 10:27 40.520198 -122.296024 67 506ft 0kts
20-Jan-19 10:29 40.520198 -122.296023 67 506ft 0kts
20-Jan-19 10:30 40.520126 -122.294954 148 506ft 4kts
20-Jan-19 10:31 40.489908 -122.294050 173 1893ft 170kts
20-Jan-19 10:31 40.456124 -122.249789 108 3423ft 241kts
20-Jan-19 10:32 40.424798 -122.167280 130 6454ft 267kts
20-Jan-19 10:34 40.402319 -122.052877 81 10612ft 326kts
20-Jan-19 10:34 40.417932 -121.946466 87 12892ft 364kts
20-Jan-19 10:35 40.428638 -121.807321 89 15173ft 382kts
20-Jan-19 10:37 40.440853 -121.636926 90 17550ft 402kts
20-Jan-19 10:37 40.449745 -121.510604 91 19100ft 415kts
20-Jan-19 10:38 40.460625 -121.353144 91 20844ft 428kts
20-Jan-19 10:39 40.471461 -121.194099 92 22266ft 442kts
20-Jan-19 10:40 40.482572 -121.026601 93 23649ft 453kts
20-Jan-19 10:41 40.493622 -120.855418 93 24886ft 464kts
20-Jan-19 10:42 40.504711 -120.679441 93 26488ft 477kts
20-Jan-19 10:43 40.515828 -120.498234 94 28456ft 494kts
20-Jan-19 10:44 40.527010 -120.312576 95 30610ft 500kts
20-Jan-19 10:45 40.538068 -120.124383 95 32592ft 502kts
20-Jan-19 10:46 40.548586 -119.938774 96 34442ft 502kts
20-Jan-19 10:47 40.559021 -119.745493 95 35194ft 525kts
20-Jan-19 10:48 40.569250 -119.552869 94 36273ft 537kts
20-Jan-19 10:49 40.579528 -119.352215 95 37042ft 551kts
20-Jan-19 10:50 40.589862 -119.146117 95 36997ft 564kts
20-Jan-19 10:51 40.599855 -118.937314 94 36998ft 565kts
20-Jan-19 10:52 40.609537 -118.725389 93 37005ft 566kts
20-Jan-19 10:53 40.618756 -118.515931 93 37013ft 565kts
20-Jan-19 10:54 40.627457 -118.309494 94 37031ft 564kts
20-Jan-19 10:55 40.636140 -118.097684 94 37044ft 564kts
20-Jan-19 10:56 40.644282 -117.887027 94 37050ft 564kts
20-Jan-19 10:57 40.651942 -117.677582 94 37053ft 562kts
20-Jan-19 10:58 40.659170 -117.467854 94 37070ft 564kts
20-Jan-19 10:59 40.666200 -117.256269 94 37068ft 562kts
20-Jan-19 11:00 40.672879 -117.044659 94 37075ft 563kts
20-Jan-19 11:01 40.679096 -116.830865 92 37078ft 564kts
20-Jan-19 11:02 40.684924 -116.618541 93 37082ft 564kts
20-Jan-19 11:03 40.690307 -116.407440 93 37086ft 564kts
20-Jan-19 11:04 40.695471 -116.195349 93 37093ft 564kts
20-Jan-19 11:05 40.700309 -115.983011 94 37092ft 541kts
20-Jan-19 11:06 40.704408 -115.778592 94 36397ft 543kts
20-Jan-19 11:07 40.708200 -115.564930 93 35457ft 563kts
20-Jan-19 11:08 40.711679 -115.352632 93 34325ft 564kts
20-Jan-19 11:09 40.714960 -115.139062 93 32983ft 565kts
20-Jan-19 11:10 40.717675 -114.927746 92 31677ft 565kts
20-Jan-19 11:11 40.720040 -114.717915 92 30399ft 562kts
20-Jan-19 11:12 40.721973 -114.509850 92 29147ft 559kts
20-Jan-19 11:13 40.723589 -114.306018 92 27821ft 518kts
20-Jan-19 11:14 40.724856 -114.122681 93 26453ft 482kts
20-Jan-19 11:15 40.725628 -113.944263 93 24971ft 480kts
20-Jan-19 11:16 40.726106 -113.768753 92 24233ft 479kts
20-Jan-19 11:17 40.725998 -113.592119 93 24079ft 481kts
20-Jan-19 11:18 40.725547 -113.417698 92 22107ft 470kts
20-Jan-19 11:19 40.724901 -113.244483 93 20118ft 466kts
20-Jan-19 11:20 40.724048 -113.073731 93 18127ft 464kts
20-Jan-19 11:21 40.723015 -112.905446 93 17014ft 423kts
20-Jan-19 11:22 40.721889 -112.753654 93 17000ft 366kts
20-Jan-19 11:23 40.720678 -112.625657 94 17021ft 339kts
20-Jan-19 11:24 40.751688 -112.507033 77 16903ft 346kts
20-Jan-19 11:25 40.738260 -112.384038 111 16900ft 340kts
20-Jan-19 11:26 40.705408 -112.249908 96 16931ft 381kts
20-Jan-19 11:27 40.729101 -112.110070 49 13606ft 361kts
20-Jan-19 11:28 40.819060 -112.103604 354 10860ft 298kts
20-Jan-19 11:29 40.893802 -112.111031 350 9221ft 242kts
20-Jan-19 11:30 40.960599 -112.122664 357 7719ft 233kts
20-Jan-19 11:31 41.026827 -112.125030 356 8289ft 223kts
20-Jan-19 11:32 41.060804 -112.082677 113 7653ft 163kts
20-Jan-19 11:33 41.028033 -112.042784 173 6519ft 163kts
20-Jan-19 11:34 40.983440 -112.030818 165 6210ft 162kts
20-Jan-19 11:35 40.935922 -112.018100 169 6181ft 178kts
20-Jan-19 11:36 40.886062 -112.008679 172 5522ft 177kts
20-Jan-19 11:37 40.834228 -112.002225 175 4841ft 179kts
20-Jan-19 11:38 40.793131 -111.997576 174 4224ft 82kts
20-Jan-19 11:39 40.787411 -111.995608 123 4223ft 0kts
20-Jan-19 11:40 40.787553 -111.994100 73 4223ft 14kts
20-Jan-19 11:41 40.790807 -111.992907 31 4223ft 17kts
20-Jan-19 11:42 40.791515 -111.986050 85 4223ft 21kts
20-Jan-19 11:43 40.790225 -111.982879 182 4223ft 8kts
20-Jan-19 11:44 40.787506 -111.982587 99 4223ft 3kts
20-Jan-19 11:45 40.787465 -111.982283 102 4223ft 0kts
20-Jan-19 11:46 40.787465 -111.982283 102 4224ft 0kts
20-Jan-19 11:47 40.787465 -111.982283 102 4224ft 0kts
20-Jan-19 11:48 40.787465 -111.982283 102 4224ft 0kts

Navigation Log

Ident Type
Flight plan parsing failed, navigation log unavailable